createdAt,value
2017-04-05T00:00:19.189Z,58.29
2017-04-05T00:00:59.701Z,58.67
2017-04-05T00:01:40.231Z,58.29
2017-04-05T00:02:20.750Z,58.1
2017-04-05T00:03:01.268Z,58
2017-04-05T00:03:41.792Z,58
2017-04-05T00:04:22.297Z,57.9
2017-04-05T00:05:02.767Z,58.76
2017-04-05T00:05:43.265Z,58.38
2017-04-05T00:06:23.757Z,59.15
2017-04-05T00:07:04.252Z,58.58
2017-04-05T00:07:44.777Z,58.58
2017-04-05T00:08:25.292Z,58.67
2017-04-05T00:09:05.810Z,58.86
2017-04-05T00:09:46.328Z,58.95
2017-04-05T00:10:26.835Z,59.34
2017-04-05T00:11:07.360Z,58.95
2017-04-05T00:11:47.867Z,58.95
2017-04-05T00:12:28.382Z,59.15
2017-04-05T00:13:08.907Z,58.95
2017-04-05T00:13:49.430Z,58.86
2017-04-05T00:14:29.948Z,59.91
2017-04-05T00:15:10.468Z,59.24
2017-04-05T00:15:50.984Z,59.24
2017-04-05T00:16:31.502Z,60.1
2017-04-05T00:17:12.046Z,60.07
2017-04-05T00:17:52.557Z,59.98
2017-04-05T00:18:33.080Z,59.78
2017-04-05T00:19:13.590Z,60.36
2017-04-05T00:19:54.097Z,60.27
2017-04-05T00:20:34.623Z,60.2
2017-04-05T00:21:15.149Z,60.36
2017-04-05T00:21:55.662Z,60.49
2017-04-05T00:22:36.176Z,60.46
2017-04-05T00:23:16.683Z,60.68
2017-04-05T00:23:57.185Z,60.58
2017-04-05T00:24:37.691Z,60.2
2017-04-05T00:25:18.194Z,59.91
2017-04-05T00:25:58.694Z,60.2
2017-04-05T00:26:39.221Z,60.49
2017-04-05T00:27:19.748Z,59.91
2017-04-05T00:28:00.274Z,59.91
2017-04-05T00:28:40.793Z,59.72
2017-04-05T00:29:21.313Z,60.39
2017-04-05T00:30:01.802Z,59.72
2017-04-05T00:30:42.327Z,59.91
2017-04-05T00:31:22.929Z,59.81
2017-04-05T00:32:03.338Z,60.1
2017-04-05T00:32:43.834Z,59.72
2017-04-05T00:33:24.332Z,59.91
2017-04-05T00:34:04.816Z,59.91
2017-04-05T00:34:45.316Z,59.91
2017-04-05T00:35:25.801Z,60.1
2017-04-05T00:36:06.309Z,59.91
2017-04-05T00:36:46.816Z,60.1
2017-04-05T00:37:27.327Z,60.01
2017-04-05T00:38:07.809Z,60.1
2017-04-05T00:38:48.340Z,60.39
2017-04-05T00:39:28.848Z,60.58
2017-04-05T00:40:09.367Z,60.49
2017-04-05T00:40:49.857Z,60.3
2017-04-05T00:41:30.357Z,60.96
2017-04-05T00:42:10.859Z,60.84
2017-04-05T00:42:51.396Z,60.49
2017-04-05T00:43:31.889Z,61.06
2017-04-05T00:44:12.408Z,60.87
2017-04-05T00:44:52.930Z,60.96
2017-04-05T00:45:33.444Z,60.96
2017-04-05T00:46:13.959Z,60.68
2017-04-05T00:46:54.448Z,60.93
2017-04-05T00:47:34.970Z,60.93
2017-04-05T00:48:15.456Z,61.13
2017-04-05T00:48:55.988Z,60.84
2017-04-05T00:49:36.485Z,61.41
2017-04-05T00:50:17.043Z,61.22
2017-04-05T00:50:57.535Z,61.13
2017-04-05T00:51:38.053Z,60.84
2017-04-05T00:52:18.562Z,61.22
2017-04-05T00:52:59.119Z,62.08
2017-04-05T00:53:39.647Z,62.37
2017-04-05T00:54:20.170Z,62.27
2017-04-05T00:55:00.681Z,62.27
2017-04-05T00:55:41.184Z,62.75
2017-04-05T00:56:21.694Z,62.27
2017-04-05T00:57:02.164Z,62.27
2017-04-05T00:57:42.689Z,61.51
2017-04-05T00:58:23.156Z,61.51
2017-04-05T00:59:03.686Z,61.22
2017-04-05T00:59:44.299Z,61.69
2017-04-05T01:00:24.807Z,61.51
2017-04-05T01:01:05.311Z,61.98
2017-04-05T01:01:45.829Z,62.94
2017-04-05T01:02:26.340Z,62.34
2017-04-05T01:03:06.848Z,62.81
2017-04-05T01:03:47.374Z,62.84
2017-04-05T01:04:27.921Z,62.27
2017-04-05T01:05:08.382Z,62.75
2017-04-05T01:05:48.872Z,62.75
2017-04-05T01:06:29.463Z,62.81
2017-04-05T01:07:09.903Z,62.94
2017-04-05T01:07:50.419Z,62.75
2017-04-05T01:08:30.939Z,62.37
2017-04-05T01:09:11.460Z,62.94
2017-04-05T01:09:51.978Z,62.37
2017-04-05T01:10:32.499Z,62.55
2017-04-05T01:11:13.006Z,62.94
2017-04-05T01:11:53.526Z,62.75
2017-04-05T01:12:34.043Z,62.75
2017-04-05T01:13:14.583Z,62.46
2017-04-05T01:13:55.081Z,62.55
2017-04-05T01:14:35.600Z,62.55
2017-04-05T01:15:16.062Z,62.55
2017-04-05T01:15:56.573Z,62.46
2017-04-05T01:16:37.091Z,62.71
2017-04-05T01:17:17.587Z,63
2017-04-05T01:17:58.088Z,63.39
2017-04-05T01:18:38.573Z,63.76
2017-04-05T01:19:19.101Z,63.86
2017-04-05T01:19:59.578Z,64.43
2017-04-05T01:20:40.114Z,64.62
2017-04-05T01:21:20.605Z,64.53
2017-04-05T01:22:01.084Z,64.72
2017-04-05T01:22:41.607Z,64.62
2017-04-05T01:23:22.122Z,64.43
2017-04-05T01:24:02.632Z,64.62
2017-04-05T01:24:43.143Z,64.43
2017-04-05T01:25:23.668Z,65.2
2017-04-05T01:26:04.186Z,65.3
2017-04-05T01:26:44.706Z,65.3
2017-04-05T01:27:25.228Z,64.91
2017-04-05T01:28:05.756Z,64.43
2017-04-05T01:28:46.287Z,64.72
2017-04-05T01:29:26.806Z,65.3
2017-04-05T01:30:07.325Z,65.2
2017-04-05T01:30:47.847Z,65.3
2017-04-05T01:31:28.361Z,65.39
2017-04-05T01:32:08.885Z,65.48
2017-04-05T01:32:49.407Z,65.96
2017-04-05T01:33:29.906Z,65.1
2017-04-05T01:34:10.508Z,65.96
2017-04-05T01:34:50.939Z,65.96
2017-04-05T01:35:31.447Z,65.87
2017-04-05T01:36:11.966Z,65.1
2017-04-05T01:36:52.494Z,65.2
2017-04-05T01:37:33.010Z,65.01
2017-04-05T01:38:13.522Z,65.1
2017-04-05T01:38:54.031Z,65.96
2017-04-05T01:39:34.552Z,66.06
2017-04-05T01:40:15.075Z,66.15
2017-04-05T01:40:55.586Z,65.96
2017-04-05T01:41:36.128Z,65.96
2017-04-05T01:42:16.637Z,66.06
2017-04-05T01:42:57.176Z,66.35
2017-04-05T01:43:37.694Z,66.25
2017-04-05T01:44:18.203Z,66.35
2017-04-05T01:44:58.723Z,66.44
2017-04-05T01:45:39.241Z,66.25
2017-04-05T01:46:19.760Z,66.53
2017-04-05T01:47:00.285Z,67.27
2017-04-05T01:47:40.833Z,67.3
2017-04-05T01:48:21.388Z,67.07
2017-04-05T01:49:01.910Z,67.3
2017-04-05T01:49:42.411Z,67.3
2017-04-05T01:50:22.917Z,67.36
2017-04-05T01:51:03.443Z,67.55
2017-04-05T01:51:44.196Z,67.46
2017-04-05T01:52:24.743Z,67.36
2017-04-05T01:53:05.256Z,67.46
2017-04-05T01:53:45.794Z,67.55
2017-04-05T01:54:26.333Z,67.46
2017-04-05T01:55:06.841Z,67.93
2017-04-05T01:55:47.358Z,68.51
2017-04-05T01:56:27.875Z,68.51
2017-04-05T01:57:08.400Z,68.32
2017-04-05T01:57:48.915Z,67.74
2017-04-05T01:58:29.436Z,68.12
2017-04-05T01:59:09.963Z,67.93
2017-04-05T01:59:50.484Z,68.41
2017-04-05T02:00:31.004Z,68.79
2017-04-05T02:01:11.544Z,68.88
2017-04-05T02:01:52.073Z,69.27
2017-04-05T02:02:32.566Z,68.88
2017-04-05T02:03:13.081Z,68.88
2017-04-05T02:03:53.609Z,68.88
2017-04-05T02:04:34.139Z,68.22
2017-04-05T02:05:14.658Z,68.51
2017-04-05T02:05:55.185Z,68.12
2017-04-05T02:06:35.700Z,68.79
2017-04-05T02:07:16.213Z,67.83
2017-04-05T02:07:56.807Z,67.93
2017-04-05T02:08:37.325Z,68.41
2017-04-05T02:09:17.844Z,68.41
2017-04-05T02:09:58.346Z,68.88
2017-04-05T02:10:38.874Z,69.17
2017-04-05T02:11:19.396Z,68.98
2017-04-05T02:11:59.950Z,69.08
2017-04-05T02:12:40.465Z,69.08
2017-04-05T02:13:20.985Z,68.79
2017-04-05T02:14:01.517Z,68.98
2017-04-05T02:14:42.025Z,69.27
2017-04-05T02:15:22.542Z,69.27
2017-04-05T02:16:03.058Z,69.65
2017-04-05T02:16:43.588Z,70.13
2017-04-05T02:17:24.107Z,70.13
2017-04-05T02:18:04.610Z,69.84
2017-04-05T02:18:45.119Z,69.74
2017-04-05T02:19:25.647Z,70.13
2017-04-05T02:20:06.167Z,70.57
2017-04-05T02:20:46.681Z,70.86
2017-04-05T02:21:27.171Z,70.51
2017-04-05T02:22:07.697Z,70.38
2017-04-05T02:22:48.174Z,70.42
2017-04-05T02:23:28.654Z,70.03
2017-04-05T02:24:09.149Z,69.74
2017-04-05T02:24:49.637Z,69.84
2017-04-05T02:25:30.133Z,69.84
2017-04-05T02:26:10.661Z,69.74
2017-04-05T02:26:51.096Z,69.27
2017-04-05T02:27:31.616Z,70.13
2017-04-05T02:28:12.100Z,70.32
2017-04-05T02:28:52.663Z,70.51
2017-04-05T02:29:33.129Z,70.61
2017-04-05T02:30:13.618Z,71.04
2017-04-05T02:30:54.140Z,71.14
2017-04-05T02:31:34.664Z,71.33
2017-04-05T02:32:15.171Z,70.67
2017-04-05T02:32:55.687Z,70.57
2017-04-05T02:33:36.164Z,70.79
2017-04-05T02:34:16.681Z,70.13
2017-04-05T02:34:57.157Z,70.51
2017-04-05T02:35:37.707Z,69.84
2017-04-05T02:36:18.182Z,69.56
2017-04-05T02:36:58.694Z,69.56
2017-04-05T02:37:39.207Z,70.13
2017-04-05T02:38:19.724Z,70.22
2017-04-05T02:39:00.219Z,70.19
2017-04-05T02:39:40.726Z,71.23
2017-04-05T02:40:21.235Z,71.08
2017-04-05T02:41:01.723Z,70.22
2017-04-05T02:41:42.215Z,70.7
2017-04-05T02:42:22.720Z,70.95
2017-04-05T02:43:03.254Z,70.79
2017-04-05T02:43:43.738Z,70.61
2017-04-05T02:44:24.322Z,70.61
2017-04-05T02:45:04.816Z,70.7
2017-04-05T02:45:45.346Z,70.7
2017-04-05T02:46:25.843Z,70.51
2017-04-05T02:47:06.333Z,70.61
2017-04-05T02:47:46.838Z,70.51
2017-04-05T02:48:27.327Z,70.7
2017-04-05T02:49:07.882Z,70.86
2017-04-05T02:49:48.336Z,71.08
2017-04-05T02:50:28.850Z,70.79
2017-04-05T02:51:09.372Z,71.08
2017-04-05T02:53:07.632Z,71.91
2017-04-05T02:53:48.149Z,71.14
2017-04-05T02:54:28.667Z,70.95
2017-04-05T02:55:09.189Z,71.23
2017-04-05T02:55:49.715Z,71.27
2017-04-05T02:56:30.221Z,70.95
2017-04-05T02:57:10.719Z,71.04
2017-04-05T02:57:51.244Z,70.86
2017-04-05T02:58:31.755Z,71.08
2017-04-05T02:59:12.277Z,71.33
2017-04-05T02:59:52.801Z,71.27
2017-04-05T03:00:33.315Z,70.98
2017-04-05T03:01:13.969Z,71.04
2017-04-05T03:01:54.636Z,70.47
2017-04-05T03:02:35.152Z,71.04
2017-04-05T03:03:15.664Z,70.95
2017-04-05T03:03:56.188Z,72
2017-04-05T03:04:36.696Z,71.14
2017-04-05T03:05:17.216Z,71.33
2017-04-05T03:05:57.730Z,70.95
2017-04-05T03:06:38.253Z,70.76
2017-04-05T03:07:18.764Z,70.79
2017-04-05T03:09:16.956Z,71.91
2017-04-05T03:09:57.470Z,72.09
2017-04-05T03:10:37.991Z,72.67
2017-04-05T03:11:18.517Z,72.28
2017-04-05T03:11:59.038Z,71.81
2017-04-05T03:12:39.548Z,72
2017-04-05T03:13:20.060Z,72.76
2017-04-05T03:14:00.566Z,72.57
2017-04-05T03:14:41.077Z,72.09
2017-04-05T03:15:21.590Z,72
2017-04-05T03:16:02.105Z,72.19
2017-04-05T03:16:42.625Z,72
2017-04-05T03:17:23.131Z,71.23
2017-04-05T03:18:03.646Z,71.91
2017-04-05T03:18:44.167Z,71.23
2017-04-05T03:19:24.679Z,72
2017-04-05T03:20:05.190Z,72
2017-04-05T03:20:45.699Z,72
2017-04-05T03:21:26.203Z,72
2017-04-05T03:22:06.717Z,71.91
2017-04-05T03:22:47.275Z,72.48
2017-04-05T03:23:27.718Z,72.67
2017-04-05T03:24:08.227Z,72.38
2017-04-05T03:24:48.735Z,72.53
2017-04-05T03:25:29.249Z,72.09
2017-04-05T03:26:09.719Z,72
2017-04-05T03:26:50.216Z,72
2017-04-05T03:27:30.726Z,71.23
2017-04-05T03:28:11.243Z,71.43
2017-04-05T03:28:51.733Z,71.43
2017-04-05T03:29:32.257Z,70.86
2017-04-05T03:30:12.715Z,71.14
2017-04-05T03:30:53.210Z,71.43
2017-04-05T03:31:33.726Z,71.72
2017-04-05T03:32:14.197Z,72.19
2017-04-05T03:32:54.709Z,72.34
2017-04-05T03:33:35.282Z,71.91
2017-04-05T03:34:15.772Z,72.19
2017-04-05T03:34:56.298Z,71.91
2017-04-05T03:35:36.822Z,71.72
2017-04-05T03:36:17.347Z,71.91
2017-04-05T03:36:57.862Z,72.53
2017-04-05T03:37:38.382Z,72
2017-04-05T03:38:18.897Z,72.48
2017-04-05T03:38:59.417Z,72.72
2017-04-05T03:39:39.936Z,72.16
2017-04-05T03:40:20.481Z,72.48
2017-04-05T03:41:01.008Z,72.28
2017-04-05T03:41:41.522Z,72.28
2017-04-05T03:42:22.039Z,72
2017-04-05T03:43:02.561Z,72
2017-04-05T03:43:43.082Z,71.91
2017-04-05T03:44:23.602Z,72
2017-04-05T03:45:04.126Z,72.19
2017-04-05T03:45:44.634Z,72
2017-04-05T03:46:25.165Z,71.81
2017-04-05T03:47:05.739Z,71.81
2017-04-05T03:47:46.219Z,72.09
2017-04-05T03:48:26.731Z,72
2017-04-05T03:49:07.253Z,71.14
2017-04-05T03:49:47.773Z,71.96
2017-04-05T03:50:28.295Z,71.91
2017-04-05T03:51:08.814Z,72.06
2017-04-05T03:51:49.942Z,71.62
2017-04-05T03:52:30.468Z,72
2017-04-05T03:53:10.968Z,71.43
2017-04-05T03:53:51.491Z,71.81
2017-04-05T03:54:32.007Z,71.14
2017-04-05T03:55:12.523Z,70.67
2017-04-05T03:55:53.050Z,70.57
2017-04-05T03:56:33.562Z,70.67
2017-04-05T03:57:14.077Z,70.38
2017-04-05T03:57:54.591Z,70.19
2017-04-05T03:58:35.106Z,70.47
2017-04-05T03:59:15.620Z,70.28
2017-04-05T03:59:56.174Z,70.38
2017-04-05T04:00:36.710Z,69.9
2017-04-05T04:01:17.236Z,70
2017-04-05T04:01:57.758Z,70.53
2017-04-05T04:02:38.283Z,70.44
2017-04-05T04:03:18.798Z,70.67
2017-04-05T04:03:59.325Z,70.57
2017-04-05T04:04:39.852Z,70.57
2017-04-05T04:05:20.374Z,70.09
2017-04-05T04:06:00.886Z,70.09
2017-04-05T04:06:41.435Z,70.38
2017-04-05T04:07:21.953Z,70.38
2017-04-05T04:08:02.462Z,69.62
2017-04-05T04:08:42.982Z,70
2017-04-05T04:09:23.505Z,69.23
2017-04-05T04:10:04.039Z,69.23
2017-04-05T04:10:44.555Z,69.04
2017-04-05T04:11:25.079Z,68.95
2017-04-05T04:12:05.599Z,69.14
2017-04-05T04:12:47.349Z,69.04
2017-04-05T04:13:27.860Z,69.33
2017-04-05T04:14:08.373Z,69.04
2017-04-05T04:14:48.880Z,69.04
2017-04-05T04:15:29.413Z,69.14
2017-04-05T04:16:09.954Z,68.95
2017-04-05T04:16:50.407Z,68.95
2017-04-05T04:17:30.938Z,69.62
2017-04-05T04:18:11.437Z,69.14
2017-04-05T04:18:51.939Z,69.14
2017-04-05T04:19:32.428Z,69.52
2017-04-05T04:20:12.941Z,69.33
2017-04-05T04:20:53.464Z,69.33
2017-04-05T04:21:33.966Z,69.77
2017-04-05T04:22:14.455Z,70.06
2017-04-05T04:22:54.977Z,71.3
2017-04-05T04:23:35.469Z,71.3
2017-04-05T04:24:15.983Z,71.11
2017-04-05T04:24:56.509Z,70.92
2017-04-05T04:25:37.015Z,71.01
2017-04-05T04:26:17.567Z,70.72
2017-04-05T04:26:58.076Z,70.53
2017-04-05T04:27:38.587Z,71.01
2017-04-05T04:28:19.101Z,71.2
2017-04-05T04:28:59.598Z,71.2
2017-04-05T04:29:40.115Z,71.3
2017-04-05T04:30:20.635Z,71.2
2017-04-05T04:31:01.145Z,70.82
2017-04-05T04:31:41.641Z,71.2
2017-04-05T04:32:22.126Z,70.63
2017-04-05T04:33:02.634Z,70.72
2017-04-05T04:33:43.122Z,70.63
2017-04-05T04:34:23.609Z,70.92
2017-04-05T04:35:04.075Z,70.25
2017-04-05T04:35:44.580Z,70.25
2017-04-05T04:36:25.120Z,70.72
2017-04-05T04:37:05.612Z,71.01
2017-04-05T04:37:46.124Z,70.72
2017-04-05T04:38:26.681Z,71.93
2017-04-05T04:39:07.175Z,71.93
2017-04-05T04:39:47.719Z,72.12
2017-04-05T04:40:28.169Z,72.88
2017-04-05T04:41:08.690Z,72.41
2017-04-05T04:41:49.370Z,72.34
2017-04-05T04:42:29.900Z,71.87
2017-04-05T04:43:10.387Z,71.93
2017-04-05T04:43:50.883Z,72.16
2017-04-05T04:44:31.372Z,71.77
2017-04-05T04:45:11.867Z,72.02
2017-04-05T04:45:52.410Z,71.87
2017-04-05T04:46:32.913Z,72.31
2017-04-05T04:47:13.398Z,72.69
2017-04-05T04:47:53.927Z,72.88
2017-04-05T04:48:34.453Z,73.36
2017-04-05T04:49:14.969Z,72.88
2017-04-05T04:49:55.481Z,72.6
2017-04-05T04:50:35.998Z,73.36
2017-04-05T04:51:16.512Z,73.26
2017-04-05T04:51:57.048Z,73.65
2017-04-05T04:52:37.549Z,73.36
2017-04-05T04:53:18.068Z,72.88
2017-04-05T04:53:58.593Z,72.41
2017-04-05T04:54:39.208Z,72.69
2017-04-05T04:55:19.725Z,72.72
2017-04-05T04:56:00.223Z,72.21
2017-04-05T04:56:40.758Z,72.31
2017-04-05T04:57:21.277Z,72.34
2017-04-05T04:58:01.789Z,71.68
2017-04-05T04:58:42.306Z,72.02
2017-04-05T04:59:22.816Z,72.6
2017-04-05T05:00:03.339Z,72.6
2017-04-05T05:00:43.863Z,72.34
2017-04-05T05:01:24.451Z,71.87
2017-04-05T05:02:04.947Z,71.96
2017-04-05T05:02:45.414Z,71.58
2017-04-05T05:03:25.920Z,71.68
2017-04-05T05:04:06.437Z,72.06
2017-04-05T05:04:46.946Z,71.96
2017-04-05T05:05:27.470Z,72.06
2017-04-05T05:06:07.976Z,71.58
2017-04-05T05:06:48.473Z,71.77
2017-04-05T05:07:29.015Z,71.11
2017-04-05T05:08:09.487Z,71.3
2017-04-05T05:08:49.980Z,71.3
2017-04-05T05:09:30.502Z,71.01
2017-04-05T05:10:10.983Z,71.2
2017-04-05T05:10:51.480Z,70.92
2017-04-05T05:11:31.985Z,71.01
2017-04-05T05:12:12.499Z,71.11
2017-04-05T05:12:53.033Z,71.83
2017-04-05T05:13:33.557Z,71.55
2017-04-05T05:14:14.084Z,71.87
2017-04-05T05:14:54.600Z,71.11
2017-04-05T05:15:35.288Z,71.11
2017-04-05T05:16:15.807Z,71.77
2017-04-05T05:16:56.828Z,71.87
2017-04-05T05:17:36.979Z,71.73
2017-04-05T05:18:17.471Z,72.16
2017-04-05T05:18:57.960Z,71.11
2017-04-05T05:19:38.462Z,71.01
2017-04-05T05:20:18.958Z,70.92
2017-04-05T05:20:59.503Z,71.01
2017-04-05T05:21:40.007Z,70.47
2017-04-05T05:22:20.501Z,70
2017-04-05T05:23:01.015Z,70.09
2017-04-05T05:23:41.526Z,69.46
2017-04-05T05:24:22.032Z,69.08
2017-04-05T05:25:02.532Z,68.79
2017-04-05T05:25:43.042Z,68.51
2017-04-05T05:26:23.543Z,68.41
2017-04-05T05:27:04.074Z,68.03
2017-04-05T05:27:44.565Z,68.03
2017-04-05T05:28:25.134Z,67.93
2017-04-05T05:29:05.589Z,67.55
2017-04-05T05:29:46.113Z,67.46
2017-04-05T05:30:26.638Z,67.55
2017-04-05T05:31:07.137Z,67.55
2017-04-05T05:31:47.590Z,67.36
2017-04-05T05:32:28.099Z,67.3
2017-04-05T05:33:08.591Z,67.21
2017-04-05T05:33:49.095Z,66.06
2017-04-05T05:35:42.235Z,67.4
2017-04-05T05:36:22.695Z,67.58
2017-04-05T05:37:03.222Z,67.49
2017-04-05T05:37:43.733Z,67.87
2017-04-05T05:38:24.351Z,67.24
2017-04-05T05:39:04.845Z,65.67
2017-04-05T05:40:57.962Z,65.23
2017-04-05T05:41:38.460Z,64.65
2017-04-05T05:42:18.946Z,64.18
2017-04-05T05:42:59.460Z,64.18
2017-04-05T05:43:39.958Z,64.56
2017-04-05T05:44:20.506Z,65.52
2017-04-05T05:45:00.974Z,64.65
2017-04-05T05:45:41.467Z,64.18
2017-04-05T05:46:22.002Z,64.85
2017-04-05T05:47:02.419Z,64.94
2017-04-05T05:47:42.956Z,64.85
2017-04-05T05:48:23.409Z,65.01
2017-04-05T05:49:03.897Z,64.72
2017-04-05T05:49:44.394Z,64.62
2017-04-05T05:50:24.928Z,65.77
2017-04-05T05:51:05.449Z,64.91
2017-04-05T05:51:46.048Z,65.2
2017-04-05T05:52:26.666Z,64.91
2017-04-05T05:53:07.147Z,64.81
2017-04-05T05:53:47.617Z,64.53
2017-04-05T05:54:28.133Z,64.65
2017-04-05T05:55:08.568Z,65.9
2017-04-05T05:55:49.074Z,65.71
2017-04-05T05:56:29.581Z,66
2017-04-05T05:57:10.015Z,66.28
2017-04-05T05:57:50.547Z,64.34
2017-04-05T05:58:31.245Z,63.96
2017-04-05T05:59:11.714Z,64.43
2017-04-05T05:59:52.209Z,63.96
2017-04-05T06:00:32.782Z,65.04
2017-04-05T06:01:13.213Z,64.65
2017-04-05T06:01:53.777Z,64.43
2017-04-05T06:02:34.249Z,65.67
2017-04-05T06:03:14.718Z,65.04
2017-04-05T06:03:55.156Z,64.37
2017-04-05T06:04:35.639Z,63.51
2017-04-05T06:05:16.176Z,64.09
2017-04-05T06:05:56.639Z,65.33
2017-04-05T06:06:37.141Z,64.69
2017-04-05T06:07:17.640Z,64.02
2017-04-05T06:07:58.138Z,64.69
2017-04-05T06:08:38.643Z,64.78
2017-04-05T06:09:19.098Z,66.03
2017-04-05T06:09:59.595Z,64.59
2017-04-05T06:10:40.069Z,63.26
2017-04-05T06:11:21.857Z,63.26
2017-04-05T06:12:02.201Z,62.11
2017-04-05T06:12:42.721Z,62.11
2017-04-05T06:13:23.214Z,61.22
2017-04-05T06:14:03.696Z,77.78
2017-04-05T06:14:44.234Z,85.14
2017-04-05T06:15:24.727Z,78.55
2017-04-05T06:16:05.932Z,71.28
2017-04-05T06:16:46.419Z,74.82
2017-04-05T06:17:26.936Z,82.79
2017-04-05T06:18:07.537Z,84.38
2017-04-05T06:18:48.036Z,78.97
2017-04-05T06:19:28.542Z,72.47
2017-04-05T06:20:09.016Z,70.56
2017-04-05T06:20:49.529Z,67.21
2017-04-05T06:21:30.010Z,65.01
2017-04-05T06:22:10.531Z,62.81
2017-04-05T06:22:51.029Z,62.33
2017-04-05T06:23:31.588Z,62.62
2017-04-05T06:24:12.095Z,64.15
2017-04-05T06:24:52.539Z,68.35
2017-04-05T06:25:33.042Z,80.11
2017-04-05T06:26:13.526Z,85.75
2017-04-05T06:26:54.008Z,91.16
2017-04-05T06:27:34.484Z,84.17
2017-04-05T06:28:14.971Z,72.94
2017-04-05T06:28:55.473Z,77.92
2017-04-05T06:29:36.029Z,81.07
2017-04-05T06:30:16.556Z,80.11
2017-04-05T06:30:57.036Z,73.52
2017-04-05T06:31:37.493Z,71.13
2017-04-05T06:32:17.999Z,69.12
2017-04-05T06:32:58.494Z,68.23
2017-04-05T06:33:38.988Z,67.65
2017-04-05T06:34:19.653Z,67.05
2017-04-05T06:35:00.210Z,64.75
2017-04-05T06:35:40.686Z,63.7
2017-04-05T06:36:21.187Z,64.75
2017-04-05T06:37:01.673Z,65.33
2017-04-05T06:37:42.210Z,66.41
2017-04-05T06:38:22.695Z,67.36
2017-04-05T06:39:03.211Z,67.65
2017-04-05T06:39:46.735Z,66.79
2017-04-05T06:40:27.775Z,65.45
2017-04-05T06:41:08.463Z,69.02
2017-04-05T06:41:49.382Z,82.31
2017-04-05T06:42:29.945Z,86.71
2017-04-05T06:43:10.461Z,86.61
2017-04-05T06:43:50.846Z,87.48
2017-04-05T06:44:31.394Z,81.55
2017-04-05T06:45:11.868Z,75.62
2017-04-05T06:45:52.391Z,69.6
2017-04-05T06:46:32.887Z,66.54
2017-04-05T06:47:13.359Z,64.4
2017-04-05T06:47:53.880Z,64.78
2017-04-05T06:48:34.413Z,64.69
2017-04-05T06:49:14.896Z,64.59
2017-04-05T06:49:55.460Z,64.05
2017-04-05T06:50:35.865Z,63.96
2017-04-05T06:51:16.393Z,64.15
2017-04-05T06:51:56.823Z,63.96
2017-04-05T06:52:37.406Z,64.15
2017-04-05T06:53:17.875Z,63.96
2017-04-05T06:53:58.330Z,62.43
2017-04-05T06:54:38.811Z,63.96
2017-04-05T06:55:19.333Z,65.3
2017-04-05T06:55:59.902Z,65.39
2017-04-05T06:56:40.457Z,65.17
2017-04-05T06:57:20.868Z,65.84
2017-04-05T06:58:01.385Z,64.59
2017-04-05T06:58:41.861Z,65.93
2017-04-05T06:59:22.471Z,80.3
2017-04-05T07:00:02.944Z,82.51
2017-04-05T07:00:43.498Z,78.01
2017-04-05T07:01:24.055Z,79.58
2017-04-05T07:02:04.534Z,77.38
2017-04-05T07:02:45.020Z,73.04
2017-04-05T07:03:25.575Z,74.8
2017-04-05T07:04:06.040Z,86.66
2017-04-05T07:04:46.526Z,90.24
2017-04-05T07:05:27.026Z,84.59
2017-04-05T07:06:07.496Z,74.13
2017-04-05T07:06:48.042Z,69.44
2017-04-05T07:07:28.537Z,65.52
2017-04-05T07:08:09.082Z,63.7
2017-04-05T07:08:49.604Z,62.17
2017-04-05T07:09:30.103Z,61.31
2017-04-05T07:10:10.554Z,61.41
2017-04-05T07:10:51.077Z,70.91
2017-04-05T07:11:31.659Z,76.84
2017-04-05T07:12:12.138Z,86.7
2017-04-05T07:12:52.639Z,85.41
2017-04-05T07:13:33.127Z,80.48
2017-04-05T07:14:13.657Z,79.47
2017-04-05T07:14:54.295Z,85.21
2017-04-05T07:15:34.902Z,87.23
2017-04-05T07:16:15.390Z,79.18
2017-04-05T07:16:55.909Z,74.3
2017-04-05T07:17:36.385Z,71.52
2017-04-05T07:18:16.858Z,67.11
2017-04-05T07:18:57.464Z,64.25
2017-04-05T07:19:37.964Z,63.1
2017-04-05T07:20:18.405Z,61.37
2017-04-05T07:20:58.928Z,60.03
2017-04-05T07:21:39.434Z,58.69
2017-04-05T07:22:20.000Z,58.22
2017-04-05T07:23:00.492Z,56.08
2017-04-05T07:23:40.946Z,56.75
2017-04-05T07:24:21.571Z,56.94
2017-04-05T07:25:01.935Z,56.94
2017-04-05T07:25:42.484Z,62.59
2017-04-05T07:26:23.101Z,68.36
2017-04-05T07:27:03.537Z,64.43
2017-04-05T07:27:44.047Z,63.96
2017-04-05T07:28:24.583Z,64.53
2017-04-05T07:29:05.154Z,60.61
2017-04-05T07:29:45.620Z,57.73
2017-04-05T07:30:26.136Z,57.06
2017-04-05T07:31:06.620Z,58.12
2017-04-05T07:31:47.122Z,57.45
2017-04-05T07:32:27.607Z,57.54
2017-04-05T07:33:08.093Z,58.02
2017-04-05T07:33:48.596Z,59.08
2017-04-05T07:34:29.101Z,58.66
2017-04-05T07:35:09.547Z,58.66
2017-04-05T07:35:50.169Z,58.79
2017-04-05T07:36:30.940Z,58.59
2017-04-05T07:37:11.490Z,56.87
2017-04-05T07:37:51.946Z,57.73
2017-04-05T07:38:32.974Z,58.4
2017-04-05T07:39:13.038Z,57.16
2017-04-05T07:39:53.591Z,57.26
2017-04-05T07:40:34.013Z,57.54
2017-04-05T07:41:14.489Z,59.43
2017-04-05T07:41:55.031Z,60.77
2017-04-05T07:43:48.264Z,61.18
2017-04-05T07:44:28.819Z,61.08
2017-04-05T07:45:09.308Z,59.45
2017-04-05T07:45:49.800Z,66.16
2017-04-05T07:46:30.458Z,74.4
2017-04-05T07:47:10.952Z,82.29
2017-04-05T07:47:51.449Z,81.13
2017-04-05T07:48:31.929Z,74.91
2017-04-05T07:49:12.429Z,72.23
2017-04-05T07:49:52.871Z,74.91
2017-04-05T07:50:33.320Z,72.71
2017-04-05T07:51:13.838Z,68.49
2017-04-05T07:51:54.351Z,72.99
2017-04-05T07:52:34.847Z,69.17
2017-04-05T07:53:15.359Z,62.17
2017-04-05T07:53:56.850Z,58.91
2017-04-05T07:54:37.333Z,58.72
2017-04-05T07:55:17.837Z,56.9
2017-04-05T07:55:58.301Z,59.11
2017-04-05T07:56:38.795Z,58.98
2017-04-05T07:57:19.328Z,59.11
2017-04-05T07:57:59.889Z,67.63
2017-04-05T07:58:40.442Z,74.72
2017-04-05T07:59:20.964Z,76.54
2017-04-05T08:00:01.457Z,79.07
2017-04-05T08:00:41.958Z,75.43
2017-04-05T08:01:22.437Z,82.32
2017-04-05T08:02:02.909Z,81.85
2017-04-05T08:02:43.419Z,79.83
2017-04-05T08:03:23.882Z,82.81
2017-04-05T08:04:04.404Z,81.37
2017-04-05T08:04:44.949Z,82.04
2017-04-05T08:05:25.409Z,85.49
2017-04-05T08:06:05.957Z,83.29
2017-04-05T08:06:46.525Z,69.93
2017-04-05T08:07:26.929Z,67.91
2017-04-05T08:08:07.450Z,78.64
2017-04-05T08:08:47.938Z,81.71
2017-04-05T08:09:28.465Z,73.95
2017-04-05T08:10:08.961Z,70.7
2017-04-05T08:10:49.491Z,70.21
2017-04-05T08:11:29.975Z,68.11
2017-04-05T08:12:10.456Z,62.93
2017-04-05T08:12:50.924Z,68.21
2017-04-05T08:13:31.458Z,66.48
2017-04-05T08:14:11.975Z,67.44
2017-04-05T08:14:52.501Z,71.46
2017-04-05T08:15:32.968Z,70.21
2017-04-05T08:16:13.451Z,67.63
2017-04-05T08:16:53.966Z,62.84
2017-04-05T08:17:34.426Z,64.56
2017-04-05T08:18:14.957Z,59.97
2017-04-05T08:18:55.440Z,67.41
2017-04-05T08:19:35.913Z,68.59
2017-04-05T08:20:16.562Z,67.79
2017-04-05T08:22:04.771Z,69.35
2017-04-05T08:22:45.160Z,66.48
2017-04-05T08:23:25.689Z,69.26
2017-04-05T08:24:06.118Z,69.35
2017-04-05T08:24:46.776Z,64.34
2017-04-05T08:25:27.226Z,65.2
2017-04-05T08:26:07.763Z,66.45
2017-04-05T08:26:48.337Z,62.55
2017-04-05T08:27:28.851Z,60.25
2017-04-05T08:28:09.462Z,57.95
2017-04-05T08:28:49.905Z,57.28
2017-04-05T08:29:30.577Z,55.36
2017-04-05T08:30:10.877Z,56.23
2017-04-05T08:30:51.306Z,55.46
2017-04-05T08:31:32.001Z,55.63
2017-04-05T08:32:12.508Z,55.63
2017-04-05T08:32:53.066Z,55.44
2017-04-05T08:33:33.598Z,55.44
2017-04-05T08:34:14.037Z,55.44
2017-04-05T08:34:54.561Z,55.91
2017-04-05T08:35:35.093Z,57.16
2017-04-05T08:36:15.627Z,57.16
2017-04-05T08:36:56.153Z,56.9
2017-04-05T08:37:36.691Z,55.36
2017-04-05T08:38:17.220Z,55.15
2017-04-05T08:38:57.720Z,57.35
2017-04-05T08:39:38.203Z,59.77
2017-04-05T08:40:18.653Z,74.05
2017-04-05T08:40:59.242Z,76.44
2017-04-05T08:41:39.693Z,70.03
2017-04-05T08:42:20.129Z,71.08
2017-04-05T08:43:00.655Z,76.44
2017-04-05T08:43:41.211Z,65.52
2017-04-05T08:44:21.763Z,62.55
2017-04-05T08:45:02.185Z,64.59
2017-04-05T08:45:42.855Z,60.64
2017-04-05T08:46:23.274Z,60.09
2017-04-05T08:47:03.757Z,57.7
2017-04-05T08:47:44.287Z,57.12
2017-04-05T08:48:24.772Z,57.19
2017-04-05T08:49:05.255Z,56.42
2017-04-05T08:49:45.733Z,56.74
2017-04-05T08:50:26.211Z,55.97
2017-04-05T08:51:06.740Z,55.78
2017-04-05T08:51:47.209Z,55.68
2017-04-05T08:52:27.809Z,56.26